sensor_id;sensor_type;location;lat;lon;timestamp;P1;durP1;ratioP1;P2;durP2;ratioP2
52564;SDS011;38460;53.106;7.004;2023-02-18T00:02:10;8.93;;;2.67;;
52564;SDS011;38460;53.106;7.004;2023-02-18T00:04:36;9.90;;;3.10;;
52564;SDS011;38460;53.106;7.004;2023-02-18T00:07:01;11.43;;;2.97;;
52564;SDS011;38460;53.106;7.004;2023-02-18T00:09:27;8.85;;;2.92;;
52564;SDS011;38460;53.106;7.004;2023-02-18T00:11:53;13.38;;;3.83;;
52564;SDS011;38460;53.106;7.004;2023-02-18T00:14:19;10.07;;;2.88;;
52564;SDS011;38460;53.106;7.004;2023-02-18T00:16:45;14.40;;;3.35;;
52564;SDS011;38460;53.106;7.004;2023-02-18T00:19:17;11.18;;;2.88;;
52564;SDS011;38460;53.106;7.004;2023-02-18T00:21:44;11.25;;;2.90;;
52564;SDS011;38460;53.106;7.004;2023-02-18T00:24:11;12.60;;;3.08;;
52564;SDS011;38460;53.106;7.004;2023-02-18T00:26:42;8.57;;;3.38;;
52564;SDS011;38460;53.106;7.004;2023-02-18T00:29:08;8.77;;;2.28;;
52564;SDS011;38460;53.106;7.004;2023-02-18T00:31:35;8.20;;;2.35;;
52564;SDS011;38460;53.106;7.004;2023-02-18T00:34:04;9.13;;;2.33;;
52564;SDS011;38460;53.106;7.004;2023-02-18T00:36:30;7.38;;;2.30;;
52564;SDS011;38460;53.106;7.004;2023-02-18T00:38:57;12.02;;;3.65;;
52564;SDS011;38460;53.106;7.004;2023-02-18T00:41:25;10.82;;;2.92;;
52564;SDS011;38460;53.106;7.004;2023-02-18T00:43:52;9.82;;;3.03;;
52564;SDS011;38460;53.106;7.004;2023-02-18T00:46:18;8.75;;;2.35;;
52564;SDS011;38460;53.106;7.004;2023-02-18T00:48:45;7.65;;;2.08;;
52564;SDS011;38460;53.106;7.004;2023-02-18T00:51:10;11.80;;;2.88;;
52564;SDS011;38460;53.106;7.004;2023-02-18T00:53:37;9.00;;;2.40;;
52564;SDS011;38460;53.106;7.004;2023-02-18T00:56:03;12.55;;;3.33;;
52564;SDS011;38460;53.106;7.004;2023-02-18T00:58:29;8.07;;;2.50;;
52564;SDS011;38460;53.106;7.004;2023-02-18T01:00:55;7.40;;;2.15;;
52564;SDS011;38460;53.106;7.004;2023-02-18T01:03:21;9.48;;;2.28;;
52564;SDS011;38460;53.106;7.004;2023-02-18T01:05:48;9.25;;;3.35;;
52564;SDS011;38460;53.106;7.004;2023-02-18T01:08:14;8.65;;;2.72;;
52564;SDS011;38460;53.106;7.004;2023-02-18T01:10:42;15.88;;;3.47;;
52564;SDS011;38460;53.106;7.004;2023-02-18T01:13:09;7.18;;;3.95;;
52564;SDS011;38460;53.106;7.004;2023-02-18T01:15:36;9.60;;;3.35;;
52564;SDS011;38460;53.106;7.004;2023-02-18T01:18:02;10.57;;;2.42;;
52564;SDS011;38460;53.106;7.004;2023-02-18T01:20:29;9.48;;;3.03;;
52564;SDS011;38460;53.106;7.004;2023-02-18T01:22:55;8.85;;;2.85;;
52564;SDS011;38460;53.106;7.004;2023-02-18T01:25:21;11.15;;;2.85;;
52564;SDS011;38460;53.106;7.004;2023-02-18T01:27:47;13.20;;;2.70;;
52564;SDS011;38460;53.106;7.004;2023-02-18T01:30:13;8.57;;;2.60;;
52564;SDS011;38460;53.106;7.004;2023-02-18T01:32:40;8.93;;;2.15;;
52564;SDS011;38460;53.106;7.004;2023-02-18T01:35:06;12.40;;;3.58;;
52564;SDS011;38460;53.106;7.004;2023-02-18T01:37:36;13.80;;;2.55;;
52564;SDS011;38460;53.106;7.004;2023-02-18T01:40:02;8.88;;;2.70;;
52564;SDS011;38460;53.106;7.004;2023-02-18T01:42:29;9.85;;;3.00;;
52564;SDS011;38460;53.106;7.004;2023-02-18T01:45:28;9.65;;;3.38;;
52564;SDS011;38460;53.106;7.004;2023-02-18T01:48:09;9.05;;;3.05;;
52564;SDS011;38460;53.106;7.004;2023-02-18T01:50:41;7.78;;;2.58;;
52564;SDS011;38460;53.106;7.004;2023-02-18T01:53:10;7.75;;;2.90;;
52564;SDS011;38460;53.106;7.004;2023-02-18T01:55:40;8.25;;;2.50;;
52564;SDS011;38460;53.106;7.004;2023-02-18T01:58:06;8.95;;;2.55;;
52564;SDS011;38460;53.106;7.004;2023-02-18T02:00:32;15.02;;;3.80;;
52564;SDS011;38460;53.106;7.004;2023-02-18T02:02:58;11.85;;;3.58;;
52564;SDS011;38460;53.106;7.004;2023-02-18T02:05:26;8.98;;;2.58;;
52564;SDS011;38460;53.106;7.004;2023-02-18T02:07:56;15.38;;;3.22;;
52564;SDS011;38460;53.106;7.004;2023-02-18T02:10:23;13.07;;;3.10;;
52564;SDS011;38460;53.106;7.004;2023-02-18T02:32:34;8.05;;;3.05;;
52564;SDS011;38460;53.106;7.004;2023-02-18T02:35:25;9.60;;;3.33;;
52564;SDS011;38460;53.106;7.004;2023-02-18T02:37:59;11.05;;;2.97;;
52564;SDS011;38460;53.106;7.004;2023-02-18T02:46:17;12.27;;;4.43;;
52564;SDS011;38460;53.106;7.004;2023-02-18T02:51:37;9.23;;;3.10;;
52564;SDS011;38460;53.106;7.004;2023-02-18T02:54:24;7.97;;;3.35;;
52564;SDS011;38460;53.106;7.004;2023-02-18T02:57:04;11.35;;;3.72;;
52564;SDS011;38460;53.106;7.004;2023-02-18T02:59:30;12.20;;;4.05;;
52564;SDS011;38460;53.106;7.004;2023-02-18T03:17:57;14.60;;;6.97;;
52564;SDS011;38460;53.106;7.004;2023-02-18T03:20:30;13.90;;;6.00;;
52564;SDS011;38460;53.106;7.004;2023-02-18T03:23:02;14.52;;;6.60;;
52564;SDS011;38460;53.106;7.004;2023-02-18T03:25:32;17.02;;;6.63;;
52564;SDS011;38460;53.106;7.004;2023-02-18T03:28:07;15.15;;;8.07;;
52564;SDS011;38460;53.106;7.004;2023-02-18T03:30:42;16.08;;;7.47;;
52564;SDS011;38460;53.106;7.004;2023-02-18T03:33:14;17.45;;;7.65;;
52564;SDS011;38460;53.106;7.004;2023-02-18T03:35:44;13.77;;;7.75;;
52564;SDS011;38460;53.106;7.004;2023-02-18T03:41:01;16.38;;;7.70;;
52564;SDS011;38460;53.106;7.004;2023-02-18T03:43:27;19.27;;;8.32;;
52564;SDS011;38460;53.106;7.004;2023-02-18T03:45:53;15.63;;;7.70;;
52564;SDS011;38460;53.106;7.004;2023-02-18T03:48:19;17.08;;;7.75;;
52564;SDS011;38460;53.106;7.004;2023-02-18T03:50:45;16.40;;;8.52;;
52564;SDS011;38460;53.106;7.004;2023-02-18T03:53:10;18.00;;;7.72;;
52564;SDS011;38460;53.106;7.004;2023-02-18T03:55:36;18.63;;;7.47;;
52564;SDS011;38460;53.106;7.004;2023-02-18T03:58:02;14.57;;;8.20;;
52564;SDS011;38460;53.106;7.004;2023-02-18T04:00:28;14.45;;;7.50;;
52564;SDS011;38460;53.106;7.004;2023-02-18T04:02:53;18.25;;;7.78;;
52564;SDS011;38460;53.106;7.004;2023-02-18T04:05:19;15.70;;;7.50;;
52564;SDS011;38460;53.106;7.004;2023-02-18T04:07:45;16.77;;;7.38;;
52564;SDS011;38460;53.106;7.004;2023-02-18T04:10:11;17.00;;;7.40;;
52564;SDS011;38460;53.106;7.004;2023-02-18T04:12:36;19.08;;;7.95;;
52564;SDS011;38460;53.106;7.004;2023-02-18T04:15:02;17.23;;;7.93;;
52564;SDS011;38460;53.106;7.004;2023-02-18T04:17:29;15.50;;;7.35;;
52564;SDS011;38460;53.106;7.004;2023-02-18T04:19:56;16.67;;;8.43;;
52564;SDS011;38460;53.106;7.004;2023-02-18T04:22:22;18.13;;;7.60;;
52564;SDS011;38460;53.106;7.004;2023-02-18T04:24:48;19.30;;;8.95;;
52564;SDS011;38460;53.106;7.004;2023-02-18T04:27:13;16.73;;;8.70;;
52564;SDS011;38460;53.106;7.004;2023-02-18T04:29:39;16.77;;;9.52;;
52564;SDS011;38460;53.106;7.004;2023-02-18T04:32:05;19.88;;;9.77;;
52564;SDS011;38460;53.106;7.004;2023-02-18T04:34:31;14.93;;;7.78;;
52564;SDS011;38460;53.106;7.004;2023-02-18T04:36:56;19.35;;;8.20;;
52564;SDS011;38460;53.106;7.004;2023-02-18T04:39:22;13.98;;;8.55;;
52564;SDS011;38460;53.106;7.004;2023-02-18T04:41:48;24.38;;;9.80;;
52564;SDS011;38460;53.106;7.004;2023-02-18T04:44:14;20.88;;;9.23;;
52564;SDS011;38460;53.106;7.004;2023-02-18T04:46:40;21.35;;;9.57;;
52564;SDS011;38460;53.106;7.004;2023-02-18T04:49:05;16.38;;;9.43;;
52564;SDS011;38460;53.106;7.004;2023-02-18T04:51:31;21.30;;;9.95;;
52564;SDS011;38460;53.106;7.004;2023-02-18T04:53:57;20.25;;;9.90;;
52564;SDS011;38460;53.106;7.004;2023-02-18T04:56:23;20.85;;;10.10;;
52564;SDS011;38460;53.106;7.004;2023-02-18T04:58:48;20.35;;;9.50;;
52564;SDS011;38460;53.106;7.004;2023-02-18T05:01:14;23.50;;;11.18;;
52564;SDS011;38460;53.106;7.004;2023-02-18T05:03:40;24.33;;;12.80;;
52564;SDS011;38460;53.106;7.004;2023-02-18T05:06:05;26.80;;;12.75;;
52564;SDS011;38460;53.106;7.004;2023-02-18T05:08:31;21.98;;;11.23;;
52564;SDS011;38460;53.106;7.004;2023-02-18T05:10:57;18.73;;;11.38;;
52564;SDS011;38460;53.106;7.004;2023-02-18T05:13:23;18.70;;;10.98;;
52564;SDS011;38460;53.106;7.004;2023-02-18T05:15:48;20.85;;;11.10;;
52564;SDS011;38460;53.106;7.004;2023-02-18T05:18:14;26.05;;;12.95;;
52564;SDS011;38460;53.106;7.004;2023-02-18T05:20:40;24.75;;;11.55;;
52564;SDS011;38460;53.106;7.004;2023-02-18T05:23:07;21.25;;;11.82;;
52564;SDS011;38460;53.106;7.004;2023-02-18T05:25:33;30.27;;;14.70;;
52564;SDS011;38460;53.106;7.004;2023-02-18T05:27:59;26.70;;;13.73;;
52564;SDS011;38460;53.106;7.004;2023-02-18T05:30:24;26.00;;;14.00;;
52564;SDS011;38460;53.106;7.004;2023-02-18T05:32:50;33.13;;;17.85;;
52564;SDS011;38460;53.106;7.004;2023-02-18T05:35:16;27.92;;;14.02;;
52564;SDS011;38460;53.106;7.004;2023-02-18T05:37:41;33.67;;;16.02;;
52564;SDS011;38460;53.106;7.004;2023-02-18T05:40:07;26.92;;;15.15;;
52564;SDS011;38460;53.106;7.004;2023-02-18T05:42:35;32.67;;;18.60;;
52564;SDS011;38460;53.106;7.004;2023-02-18T05:45:00;44.53;;;21.23;;
52564;SDS011;38460;53.106;7.004;2023-02-18T05:47:26;43.03;;;20.63;;
52564;SDS011;38460;53.106;7.004;2023-02-18T05:49:52;40.08;;;20.83;;
52564;SDS011;38460;53.106;7.004;2023-02-18T05:52:19;46.08;;;23.80;;
52564;SDS011;38460;53.106;7.004;2023-02-18T05:54:46;44.42;;;23.85;;
52564;SDS011;38460;53.106;7.004;2023-02-18T05:57:12;48.70;;;24.92;;
52564;SDS011;38460;53.106;7.004;2023-02-18T05:59:39;40.55;;;22.20;;
52564;SDS011;38460;53.106;7.004;2023-02-18T06:02:05;46.75;;;26.65;;
52564;SDS011;38460;53.106;7.004;2023-02-18T06:04:31;52.75;;;26.33;;
52564;SDS011;38460;53.106;7.004;2023-02-18T06:06:57;47.20;;;24.42;;
52564;SDS011;38460;53.106;7.004;2023-02-18T06:09:23;46.78;;;25.15;;
52564;SDS011;38460;53.106;7.004;2023-02-18T06:11:48;59.97;;;27.02;;
52564;SDS011;38460;53.106;7.004;2023-02-18T06:14:15;48.60;;;26.45;;
52564;SDS011;38460;53.106;7.004;2023-02-18T06:16:41;55.63;;;29.05;;
52564;SDS011;38460;53.106;7.004;2023-02-18T06:19:06;65.15;;;28.73;;
52564;SDS011;38460;53.106;7.004;2023-02-18T06:21:32;55.72;;;28.63;;
52564;SDS011;38460;53.106;7.004;2023-02-18T06:23:58;69.07;;;28.75;;
52564;SDS011;38460;53.106;7.004;2023-02-18T06:26:24;55.42;;;27.35;;
52564;SDS011;38460;53.106;7.004;2023-02-18T06:28:50;53.65;;;27.88;;
52564;SDS011;38460;53.106;7.004;2023-02-18T06:31:15;46.15;;;23.50;;
52564;SDS011;38460;53.106;7.004;2023-02-18T06:33:41;46.05;;;22.50;;
52564;SDS011;38460;53.106;7.004;2023-02-18T06:36:08;42.47;;;21.85;;
52564;SDS011;38460;53.106;7.004;2023-02-18T06:38:36;40.40;;;19.20;;
52564;SDS011;38460;53.106;7.004;2023-02-18T06:41:03;41.58;;;17.70;;
52564;SDS011;38460;53.106;7.004;2023-02-18T06:43:29;36.90;;;17.10;;
52564;SDS011;38460;53.106;7.004;2023-02-18T06:45:55;37.30;;;16.33;;
52564;SDS011;38460;53.106;7.004;2023-02-18T06:48:21;29.17;;;14.40;;
52564;SDS011;38460;53.106;7.004;2023-02-18T06:50:47;28.30;;;12.98;;
52564;SDS011;38460;53.106;7.004;2023-02-18T06:53:13;20.65;;;10.75;;
52564;SDS011;38460;53.106;7.004;2023-02-18T06:55:41;23.45;;;10.77;;
52564;SDS011;38460;53.106;7.004;2023-02-18T06:58:08;20.90;;;9.75;;
52564;SDS011;38460;53.106;7.004;2023-02-18T07:00:35;19.45;;;9.80;;
52564;SDS011;38460;53.106;7.004;2023-02-18T07:03:01;19.15;;;9.38;;
52564;SDS011;38460;53.106;7.004;2023-02-18T07:05:27;16.98;;;9.25;;
52564;SDS011;38460;53.106;7.004;2023-02-18T07:07:53;15.35;;;7.72;;
52564;SDS011;38460;53.106;7.004;2023-02-18T07:10:19;16.30;;;8.20;;
52564;SDS011;38460;53.106;7.004;2023-02-18T07:12:45;14.20;;;6.90;;
52564;SDS011;38460;53.106;7.004;2023-02-18T07:15:11;14.32;;;7.45;;
52564;SDS011;38460;53.106;7.004;2023-02-18T07:17:37;15.98;;;7.88;;
52564;SDS011;38460;53.106;7.004;2023-02-18T07:20:03;16.80;;;8.20;;
52564;SDS011;38460;53.106;7.004;2023-02-18T07:22:30;18.90;;;8.68;;
52564;SDS011;38460;53.106;7.004;2023-02-18T07:24:56;16.90;;;7.88;;
52564;SDS011;38460;53.106;7.004;2023-02-18T07:27:22;15.88;;;8.18;;
52564;SDS011;38460;53.106;7.004;2023-02-18T07:29:48;14.80;;;8.20;;
52564;SDS011;38460;53.106;7.004;2023-02-18T07:32:15;14.95;;;7.75;;
52564;SDS011;38460;53.106;7.004;2023-02-18T07:34:43;13.05;;;7.45;;
52564;SDS011;38460;53.106;7.004;2023-02-18T07:37:08;14.85;;;8.02;;
52564;SDS011;38460;53.106;7.004;2023-02-18T07:39:39;17.55;;;9.60;;
52564;SDS011;38460;53.106;7.004;2023-02-18T07:42:06;16.77;;;10.02;;
52564;SDS011;38460;53.106;7.004;2023-02-18T07:44:33;19.73;;;10.90;;
52564;SDS011;38460;53.106;7.004;2023-02-18T07:46:59;19.90;;;10.90;;
52564;SDS011;38460;53.106;7.004;2023-02-18T07:49:26;22.02;;;11.95;;
52564;SDS011;38460;53.106;7.004;2023-02-18T07:51:51;22.58;;;11.77;;
52564;SDS011;38460;53.106;7.004;2023-02-18T07:54:17;22.00;;;12.00;;
52564;SDS011;38460;53.106;7.004;2023-02-18T07:56:44;23.42;;;12.13;;
52564;SDS011;38460;53.106;7.004;2023-02-18T07:59:10;20.85;;;11.52;;
52564;SDS011;38460;53.106;7.004;2023-02-18T08:01:36;21.08;;;11.48;;
52564;SDS011;38460;53.106;7.004;2023-02-18T08:07:13;19.08;;;11.10;;
52564;SDS011;38460;53.106;7.004;2023-02-18T08:09:41;20.70;;;11.57;;
52564;SDS011;38460;53.106;7.004;2023-02-18T08:12:07;20.85;;;11.82;;
52564;SDS011;38460;53.106;7.004;2023-02-18T08:14:33;22.05;;;11.40;;
52564;SDS011;38460;53.106;7.004;2023-02-18T08:16:59;16.88;;;10.60;;
52564;SDS011;38460;53.106;7.004;2023-02-18T08:19:25;19.80;;;10.45;;
52564;SDS011;38460;53.106;7.004;2023-02-18T08:21:50;17.45;;;9.93;;
52564;SDS011;38460;53.106;7.004;2023-02-18T08:24:16;17.45;;;10.85;;
52564;SDS011;38460;53.106;7.004;2023-02-18T08:26:42;17.92;;;9.57;;
52564;SDS011;38460;53.106;7.004;2023-02-18T08:29:07;16.02;;;8.48;;
52564;SDS011;38460;53.106;7.004;2023-02-18T08:31:33;12.27;;;8.23;;
52564;SDS011;38460;53.106;7.004;2023-02-18T08:33:59;16.55;;;8.00;;
52564;SDS011;38460;53.106;7.004;2023-02-18T08:36:28;15.65;;;8.25;;
52564;SDS011;38460;53.106;7.004;2023-02-18T08:38:54;14.02;;;7.22;;
52564;SDS011;38460;53.106;7.004;2023-02-18T08:41:21;12.55;;;7.00;;
52564;SDS011;38460;53.106;7.004;2023-02-18T08:43:47;11.45;;;6.88;;
52564;SDS011;38460;53.106;7.004;2023-02-18T08:46:13;13.82;;;7.72;;
52564;SDS011;38460;53.106;7.004;2023-02-18T08:48:40;14.27;;;6.95;;
52564;SDS011;38460;53.106;7.004;2023-02-18T08:51:13;13.77;;;6.72;;
52564;SDS011;38460;53.106;7.004;2023-02-18T08:53:44;11.52;;;6.00;;
52564;SDS011;38460;53.106;7.004;2023-02-18T08:56:11;11.25;;;6.03;;
52564;SDS011;38460;53.106;7.004;2023-02-18T08:58:38;12.20;;;5.60;;
52564;SDS011;38460;53.106;7.004;2023-02-18T09:01:05;15.80;;;5.82;;
52564;SDS011;38460;53.106;7.004;2023-02-18T09:03:33;13.00;;;6.15;;
52564;SDS011;38460;53.106;7.004;2023-02-18T09:05:59;12.95;;;6.68;;
52564;SDS011;38460;53.106;7.004;2023-02-18T09:08:26;14.02;;;5.43;;
52564;SDS011;38460;53.106;7.004;2023-02-18T09:10:56;11.85;;;6.15;;
52564;SDS011;38460;53.106;7.004;2023-02-18T09:13:23;10.30;;;5.35;;
52564;SDS011;38460;53.106;7.004;2023-02-18T09:15:56;10.98;;;5.75;;
52564;SDS011;38460;53.106;7.004;2023-02-18T09:18:27;10.15;;;4.78;;
52564;SDS011;38460;53.106;7.004;2023-02-18T09:20:56;11.02;;;4.90;;
52564;SDS011;38460;53.106;7.004;2023-02-18T09:23:24;9.25;;;4.53;;
52564;SDS011;38460;53.106;7.004;2023-02-18T09:25:50;9.75;;;4.20;;
52564;SDS011;38460;53.106;7.004;2023-02-18T09:28:16;11.35;;;4.47;;
52564;SDS011;38460;53.106;7.004;2023-02-18T09:30:42;9.23;;;4.70;;
52564;SDS011;38460;53.106;7.004;2023-02-18T09:33:08;8.52;;;4.32;;
52564;SDS011;38460;53.106;7.004;2023-02-18T09:35:37;11.10;;;4.35;;
52564;SDS011;38460;53.106;7.004;2023-02-18T09:38:04;10.25;;;4.20;;
52564;SDS011;38460;53.106;7.004;2023-02-18T09:40:31;7.90;;;3.25;;
52564;SDS011;38460;53.106;7.004;2023-02-18T09:42:59;6.57;;;3.50;;
52564;SDS011;38460;53.106;7.004;2023-02-18T09:45:25;6.75;;;2.90;;
52564;SDS011;38460;53.106;7.004;2023-02-18T09:47:52;7.88;;;3.53;;
52564;SDS011;38460;53.106;7.004;2023-02-18T09:50:26;6.65;;;3.13;;
52564;SDS011;38460;53.106;7.004;2023-02-18T09:52:54;5.47;;;2.22;;
52564;SDS011;38460;53.106;7.004;2023-02-18T09:55:32;6.30;;;2.60;;
52564;SDS011;38460;53.106;7.004;2023-02-18T09:58:07;8.38;;;3.25;;
52564;SDS011;38460;53.106;7.004;2023-02-18T10:00:43;6.88;;;3.15;;
52564;SDS011;38460;53.106;7.004;2023-02-18T10:03:19;7.07;;;2.87;;
52564;SDS011;38460;53.106;7.004;2023-02-18T10:05:54;5.57;;;2.83;;
52564;SDS011;38460;53.106;7.004;2023-02-18T10:08:38;6.40;;;2.83;;
52564;SDS011;38460;53.106;7.004;2023-02-18T10:11:12;5.75;;;2.83;;
52564;SDS011;38460;53.106;7.004;2023-02-18T10:13:45;6.63;;;2.95;;
52564;SDS011;38460;53.106;7.004;2023-02-18T10:16:14;7.35;;;3.13;;
52564;SDS011;38460;53.106;7.004;2023-02-18T10:18:43;6.75;;;2.65;;
52564;SDS011;38460;53.106;7.004;2023-02-18T10:21:34;5.35;;;3.25;;
52564;SDS011;38460;53.106;7.004;2023-02-18T10:26:50;8.98;;;3.40;;
52564;SDS011;38460;53.106;7.004;2023-02-18T10:29:18;6.50;;;2.90;;
52564;SDS011;38460;53.106;7.004;2023-02-18T10:31:48;6.03;;;3.05;;
52564;SDS011;38460;53.106;7.004;2023-02-18T10:48:09;12.65;;;3.13;;
52564;SDS011;38460;53.106;7.004;2023-02-18T10:50:39;7.63;;;2.47;;
52564;SDS011;38460;53.106;7.004;2023-02-18T10:53:18;12.98;;;3.03;;
52564;SDS011;38460;53.106;7.004;2023-02-18T10:55:46;8.52;;;3.15;;
52564;SDS011;38460;53.106;7.004;2023-02-18T11:01:15;12.80;;;3.78;;
52564;SDS011;38460;53.106;7.004;2023-02-18T11:03:51;8.10;;;2.70;;
52564;SDS011;38460;53.106;7.004;2023-02-18T11:06:40;9.20;;;3.08;;
52564;SDS011;38460;53.106;7.004;2023-02-18T11:09:20;9.52;;;3.08;;
52564;SDS011;38460;53.106;7.004;2023-02-18T11:12:00;11.10;;;3.75;;
52564;SDS011;38460;53.106;7.004;2023-02-18T11:14:44;10.52;;;2.65;;
52564;SDS011;38460;53.106;7.004;2023-02-18T11:17:24;12.10;;;3.10;;
52564;SDS011;38460;53.106;7.004;2023-02-18T11:22:27;6.43;;;3.90;;
52564;SDS011;38460;53.106;7.004;2023-02-18T11:24:58;10.35;;;2.92;;
52564;SDS011;38460;53.106;7.004;2023-02-18T11:27:43;9.80;;;2.97;;
52564;SDS011;38460;53.106;7.004;2023-02-18T11:32:39;6.88;;;2.85;;
52564;SDS011;38460;53.106;7.004;2023-02-18T11:35:06;10.95;;;3.50;;
52564;SDS011;38460;53.106;7.004;2023-02-18T11:37:40;9.60;;;2.85;;
52564;SDS011;38460;53.106;7.004;2023-02-18T11:40:06;12.35;;;3.33;;
52564;SDS011;38460;53.106;7.004;2023-02-18T11:42:44;11.93;;;3.08;;
52564;SDS011;38460;53.106;7.004;2023-02-18T11:45:11;11.38;;;3.13;;
52564;SDS011;38460;53.106;7.004;2023-02-18T11:48:01;7.10;;;2.88;;
52564;SDS011;38460;53.106;7.004;2023-02-18T11:50:33;15.23;;;3.28;;
52564;SDS011;38460;53.106;7.004;2023-02-18T11:53:00;6.78;;;2.97;;
52564;SDS011;38460;53.106;7.004;2023-02-18T11:55:52;7.35;;;2.95;;
52564;SDS011;38460;53.106;7.004;2023-02-18T11:58:20;10.65;;;2.83;;
52564;SDS011;38460;53.106;7.004;2023-02-18T12:00:47;7.53;;;3.13;;
52564;SDS011;38460;53.106;7.004;2023-02-18T12:06:04;8.25;;;3.25;;
52564;SDS011;38460;53.106;7.004;2023-02-18T12:08:54;7.78;;;3.22;;
52564;SDS011;38460;53.106;7.004;2023-02-18T12:11:42;10.00;;;2.90;;
52564;SDS011;38460;53.106;7.004;2023-02-18T12:14:16;7.88;;;3.17;;
52564;SDS011;38460;53.106;7.004;2023-02-18T12:27:39;7.65;;;2.92;;
52564;SDS011;38460;53.106;7.004;2023-02-18T12:30:17;8.63;;;2.50;;
52564;SDS011;38460;53.106;7.004;2023-02-18T12:46:54;7.50;;;2.40;;
52564;SDS011;38460;53.106;7.004;2023-02-18T13:11:40;11.18;;;3.22;;
52564;SDS011;38460;53.106;7.004;2023-02-18T13:14:21;10.15;;;2.72;;
52564;SDS011;38460;53.106;7.004;2023-02-18T13:16:51;10.18;;;2.50;;
52564;SDS011;38460;53.106;7.004;2023-02-18T13:19:21;7.97;;;2.45;;
52564;SDS011;38460;53.106;7.004;2023-02-18T13:21:48;7.65;;;2.45;;
52564;SDS011;38460;53.106;7.004;2023-02-18T13:24:26;8.55;;;2.55;;
52564;SDS011;38460;53.106;7.004;2023-02-18T13:27:08;7.75;;;2.15;;
52564;SDS011;38460;53.106;7.004;2023-02-18T13:35:58;6.10;;;2.35;;
52564;SDS011;38460;53.106;7.004;2023-02-18T13:41:15;7.65;;;2.55;;
52564;SDS011;38460;53.106;7.004;2023-02-18T13:43:42;11.85;;;3.33;;
52564;SDS011;38460;53.106;7.004;2023-02-18T13:46:14;5.80;;;1.80;;
52564;SDS011;38460;53.106;7.004;2023-02-18T13:48:47;8.02;;;2.40;;
52564;SDS011;38460;53.106;7.004;2023-02-18T13:51:26;8.70;;;2.47;;
52564;SDS011;38460;53.106;7.004;2023-02-18T13:54:10;7.07;;;2.03;;
52564;SDS011;38460;53.106;7.004;2023-02-18T13:59:17;6.82;;;2.15;;
52564;SDS011;38460;53.106;7.004;2023-02-18T14:01:47;8.63;;;2.22;;
52564;SDS011;38460;53.106;7.004;2023-02-18T14:09:50;6.97;;;1.90;;
52564;SDS011;38460;53.106;7.004;2023-02-18T14:14:54;8.05;;;1.92;;
52564;SDS011;38460;53.106;7.004;2023-02-18T14:19:53;7.47;;;2.55;;
52564;SDS011;38460;53.106;7.004;2023-02-18T14:22:25;7.85;;;2.05;;
52564;SDS011;38460;53.106;7.004;2023-02-18T14:27:35;11.02;;;2.80;;
52564;SDS011;38460;53.106;7.004;2023-02-18T14:30:06;9.63;;;2.70;;
52564;SDS011;38460;53.106;7.004;2023-02-18T14:33:00;6.93;;;2.40;;
52564;SDS011;38460;53.106;7.004;2023-02-18T14:41:18;11.00;;;2.60;;
52564;SDS011;38460;53.106;7.004;2023-02-18T14:51:46;13.13;;;3.08;;
52564;SDS011;38460;53.106;7.004;2023-02-18T14:54:15;7.72;;;2.63;;
52564;SDS011;38460;53.106;7.004;2023-02-18T14:56:56;9.82;;;2.58;;
52564;SDS011;38460;53.106;7.004;2023-02-18T14:59:26;8.60;;;3.47;;
52564;SDS011;38460;53.106;7.004;2023-02-18T15:01:55;7.55;;;2.28;;
52564;SDS011;38460;53.106;7.004;2023-02-18T15:04:22;8.38;;;2.00;;
52564;SDS011;38460;53.106;7.004;2023-02-18T15:07:02;8.75;;;2.40;;
52564;SDS011;38460;53.106;7.004;2023-02-18T15:09:32;9.38;;;2.63;;
52564;SDS011;38460;53.106;7.004;2023-02-18T15:11:58;11.32;;;2.55;;
52564;SDS011;38460;53.106;7.004;2023-02-18T15:14:31;6.35;;;2.28;;
52564;SDS011;38460;53.106;7.004;2023-02-18T15:17:05;7.53;;;2.15;;
52564;SDS011;38460;53.106;7.004;2023-02-18T15:19:45;6.90;;;2.55;;
52564;SDS011;38460;53.106;7.004;2023-02-18T15:22:19;9.88;;;2.83;;
52564;SDS011;38460;53.106;7.004;2023-02-18T15:24:50;9.60;;;2.83;;
52564;SDS011;38460;53.106;7.004;2023-02-18T15:27:19;9.30;;;2.83;;
52564;SDS011;38460;53.106;7.004;2023-02-18T15:30:35;6.70;;;3.00;;
52564;SDS011;38460;53.106;7.004;2023-02-18T15:32:57;10.65;;;2.78;;
52564;SDS011;38460;53.106;7.004;2023-02-18T15:35:25;10.90;;;3.78;;
52564;SDS011;38460;53.106;7.004;2023-02-18T15:37:56;11.15;;;2.85;;
52564;SDS011;38460;53.106;7.004;2023-02-18T15:40:24;8.20;;;2.72;;
52564;SDS011;38460;53.106;7.004;2023-02-18T15:42:55;10.30;;;3.10;;
52564;SDS011;38460;53.106;7.004;2023-02-18T15:45:24;13.50;;;3.15;;
52564;SDS011;38460;53.106;7.004;2023-02-18T15:47:56;11.55;;;3.15;;
52564;SDS011;38460;53.106;7.004;2023-02-18T15:50:30;14.32;;;3.55;;
52564;SDS011;38460;53.106;7.004;2023-02-18T15:53:03;11.77;;;3.78;;
52564;SDS011;38460;53.106;7.004;2023-02-18T15:55:35;8.63;;;2.88;;
52564;SDS011;38460;53.106;7.004;2023-02-18T15:58:14;14.98;;;3.05;;
52564;SDS011;38460;53.106;7.004;2023-02-18T16:00:54;9.57;;;2.95;;
52564;SDS011;38460;53.106;7.004;2023-02-18T16:06:12;13.20;;;4.22;;
52564;SDS011;38460;53.106;7.004;2023-02-18T16:08:45;10.65;;;4.60;;
52564;SDS011;38460;53.106;7.004;2023-02-18T16:11:24;11.15;;;4.30;;
52564;SDS011;38460;53.106;7.004;2023-02-18T16:13:53;10.43;;;3.63;;
52564;SDS011;38460;53.106;7.004;2023-02-18T16:16:23;11.32;;;4.35;;
52564;SDS011;38460;53.106;7.004;2023-02-18T16:18:53;14.70;;;4.03;;
52564;SDS011;38460;53.106;7.004;2023-02-18T16:23:51;11.48;;;3.38;;
52564;SDS011;38460;53.106;7.004;2023-02-18T16:28:52;12.05;;;3.50;;
52564;SDS011;38460;53.106;7.004;2023-02-18T16:31:19;11.10;;;3.75;;
52564;SDS011;38460;53.106;7.004;2023-02-18T16:33:46;9.32;;;3.60;;
52564;SDS011;38460;53.106;7.004;2023-02-18T16:36:13;7.95;;;2.78;;
52564;SDS011;38460;53.106;7.004;2023-02-18T16:38:40;12.05;;;4.07;;
52564;SDS011;38460;53.106;7.004;2023-02-18T16:41:07;15.95;;;3.45;;
52564;SDS011;38460;53.106;7.004;2023-02-18T16:43:35;10.30;;;4.15;;
52564;SDS011;38460;53.106;7.004;2023-02-18T16:46:06;11.65;;;3.88;;
52564;SDS011;38460;53.106;7.004;2023-02-18T16:48:43;12.65;;;3.85;;
52564;SDS011;38460;53.106;7.004;2023-02-18T16:51:12;13.88;;;4.57;;
52564;SDS011;38460;53.106;7.004;2023-02-18T16:53:44;14.60;;;5.35;;
52564;SDS011;38460;53.106;7.004;2023-02-18T16:56:14;11.02;;;3.60;;
52564;SDS011;38460;53.106;7.004;2023-02-18T16:58:42;10.18;;;2.95;;
52564;SDS011;38460;53.106;7.004;2023-02-18T17:01:12;9.90;;;3.92;;
52564;SDS011;38460;53.106;7.004;2023-02-18T17:03:45;17.25;;;4.22;;
52564;SDS011;38460;53.106;7.004;2023-02-18T17:06:11;15.82;;;3.85;;
52564;SDS011;38460;53.106;7.004;2023-02-18T17:08:38;10.02;;;3.40;;
52564;SDS011;38460;53.106;7.004;2023-02-18T17:11:03;10.93;;;3.38;;
52564;SDS011;38460;53.106;7.004;2023-02-18T17:13:30;17.23;;;4.18;;
52564;SDS011;38460;53.106;7.004;2023-02-18T17:15:56;18.30;;;5.20;;
52564;SDS011;38460;53.106;7.004;2023-02-18T17:18:23;9.77;;;4.68;;
52564;SDS011;38460;53.106;7.004;2023-02-18T17:20:50;13.43;;;3.97;;
52564;SDS011;38460;53.106;7.004;2023-02-18T17:23:19;13.13;;;3.78;;
52564;SDS011;38460;53.106;7.004;2023-02-18T17:25:47;12.63;;;3.40;;
52564;SDS011;38460;53.106;7.004;2023-02-18T17:28:14;15.13;;;4.97;;
52564;SDS011;38460;53.106;7.004;2023-02-18T17:30:43;11.60;;;3.70;;
52564;SDS011;38460;53.106;7.004;2023-02-18T17:33:21;15.90;;;4.13;;
52564;SDS011;38460;53.106;7.004;2023-02-18T17:35:49;32.65;;;5.07;;
52564;SDS011;38460;53.106;7.004;2023-02-18T17:38:16;13.48;;;3.92;;
52564;SDS011;38460;53.106;7.004;2023-02-18T17:40:42;18.50;;;4.95;;